createdAt,value
2023-04-19T00:01:14.567Z,6.66
2023-04-19T00:06:21.184Z,6.64
2023-04-19T00:11:26.700Z,6.59
2023-04-19T00:16:32.276Z,6.51
2023-04-19T00:21:37.776Z,6.55
2023-04-19T00:26:43.207Z,6.57
2023-04-19T00:31:49.399Z,6.59
2023-04-19T00:36:54.833Z,6.66
2023-04-19T00:42:01.524Z,6.66
2023-04-19T00:47:07.744Z,6.73
2023-04-19T00:52:13.325Z,6.69
2023-04-19T00:57:19.920Z,6.65
2023-04-19T01:02:28.714Z,6.70
2023-04-19T01:07:35.480Z,6.68
2023-04-19T01:12:40.973Z,6.69
2023-04-19T01:17:48.193Z,6.68
2023-04-19T01:22:53.745Z,6.66
2023-04-19T01:27:59.406Z,6.66
2023-04-19T01:33:04.973Z,6.60
2023-04-19T01:38:10.619Z,6.62
2023-04-19T01:43:22.058Z,6.67
2023-04-19T01:48:27.634Z,6.69
2023-04-19T01:53:33.193Z,6.58
2023-04-19T01:58:39.769Z,6.68
2023-04-19T02:03:45.613Z,6.68
2023-04-19T02:08:51.477Z,6.62
2023-04-19T02:13:56.954Z,6.55
2023-04-19T02:19:02.434Z,6.61
2023-04-19T02:24:08.522Z,6.56
2023-04-19T02:29:13.953Z,6.59
2023-04-19T02:34:19.612Z,6.55
2023-04-19T02:39:25.104Z,6.54
2023-04-19T02:44:31.414Z,6.49
2023-04-19T02:49:38.186Z,6.52
2023-04-19T02:54:44.058Z,6.52
2023-04-19T02:59:49.614Z,6.50
2023-04-19T03:04:55.556Z,6.45
2023-04-19T03:10:01.570Z,6.37
2023-04-19T03:15:10.047Z,6.47
2023-04-19T03:20:17.202Z,6.38
2023-04-19T03:25:23.785Z,6.40
2023-04-19T03:30:31.081Z,6.34
2023-04-19T03:35:37.467Z,6.40
2023-04-19T03:40:44.570Z,6.33
2023-04-19T03:45:52.058Z,6.31
2023-04-19T03:50:58.091Z,6.25
2023-04-19T03:56:04.520Z,6.25
2023-04-19T04:01:21.503Z,6.22
2023-04-19T04:06:28.152Z,6.23
2023-04-19T04:11:34.331Z,6.28
2023-04-19T04:16:40.428Z,6.30
2023-04-19T04:21:46.342Z,6.33
2023-04-19T04:26:52.686Z,6.42
2023-04-19T04:32:00.071Z,6.44
2023-04-19T04:37:09.007Z,6.50
2023-04-19T04:42:15.705Z,6.54
2023-04-19T04:47:22.250Z,6.68
2023-04-19T04:52:30.499Z,6.63
2023-04-19T04:57:40.855Z,6.79
2023-04-19T05:02:48.080Z,6.80
2023-04-19T05:07:54.109Z,6.83
2023-04-19T05:12:59.605Z,6.86
2023-04-19T05:18:07.631Z,6.90
2023-04-19T05:23:13.562Z,6.99
2023-04-19T05:28:20.640Z,7.12
2023-04-19T05:33:34.302Z,7.14
2023-04-19T05:38:40.088Z,7.28
2023-04-19T05:43:45.913Z,7.38
2023-04-19T05:48:52.348Z,7.36
2023-04-19T05:54:10.498Z,7.48
2023-04-19T05:59:17.542Z,7.48
2023-04-19T06:04:23.991Z,7.58
2023-04-19T06:09:30.055Z,7.71
2023-04-19T06:14:35.817Z,7.87
2023-04-19T06:19:41.516Z,7.86
2023-04-19T06:24:47.874Z,7.90
2023-04-19T06:29:53.446Z,8.04
2023-04-19T06:34:58.946Z,7.96
2023-04-19T06:40:06.268Z,8.19
2023-04-19T06:45:12.905Z,8.27
2023-04-19T06:50:18.674Z,9.16
2023-04-19T06:55:24.419Z,8.82
2023-04-19T07:00:29.956Z,8.78
2023-04-19T07:05:36.975Z,8.82
2023-04-19T07:10:43.973Z,8.93
2023-04-19T07:15:49.552Z,9.14
2023-04-19T07:20:54.994Z,9.44
2023-04-19T07:26:00.512Z,9.47
2023-04-19T07:31:06.169Z,9.51
2023-04-19T07:36:12.280Z,9.72
2023-04-19T07:41:18.328Z,9.64
2023-04-19T07:46:23.917Z,9.62
2023-04-19T07:51:29.493Z,9.60
2023-04-19T07:56:35.083Z,9.81
2023-04-19T08:01:40.797Z,10.00
2023-04-19T08:06:46.530Z,10.07
2023-04-19T08:11:53.622Z,10.26
2023-04-19T08:17:22.400Z,10.68
2023-04-19T08:22:06.256Z,10.61
2023-04-19T08:27:12.214Z,10.96
2023-04-19T08:32:17.778Z,11.32
2023-04-19T08:37:26.488Z,11.34
2023-04-19T08:42:37.145Z,11.31
2023-04-19T08:52:58.750Z,11.59
2023-04-19T08:57:58.926Z,11.71
2023-04-19T09:03:04.707Z,11.72
2023-04-19T09:08:30.650Z,11.93
2023-04-19T09:13:40.710Z,11.75
2023-04-19T09:19:11.576Z,11.61
2023-04-19T09:24:07.793Z,11.36
2023-04-19T09:29:16.705Z,11.56
2023-04-19T09:34:24.279Z,11.60
2023-04-19T09:39:36.277Z,11.97
2023-04-19T09:45:16.941Z,12.20
2023-04-19T09:49:49.817Z,12.19
2023-04-19T09:54:56.376Z,12.24
2023-04-19T10:00:04.874Z,12.11
2023-04-19T10:05:20.280Z,11.92
2023-04-19T10:10:33.010Z,11.88
2023-04-19T10:15:49.334Z,12.25
2023-04-19T10:20:54.903Z,12.42
2023-04-19T10:26:00.493Z,12.70
2023-04-19T10:31:06.782Z,12.53
2023-04-19T10:36:14.505Z,12.40
2023-04-19T10:41:20.982Z,12.43
2023-04-19T10:46:30.123Z,12.37
2023-04-19T10:51:38.940Z,12.14
2023-04-19T10:57:06.040Z,12.11
2023-04-19T11:02:28.297Z,12.20
2023-04-19T11:07:39.825Z,12.09
2023-04-19T11:12:46.151Z,12.48
2023-04-19T11:18:08.734Z,12.50
2023-04-19T11:23:01.145Z,12.41
2023-04-19T11:28:07.085Z,12.41
2023-04-19T11:33:14.179Z,12.47
2023-04-19T11:38:19.756Z,12.44
2023-04-19T11:43:25.347Z,12.69
2023-04-19T11:48:30.963Z,12.83
2023-04-19T11:53:36.553Z,13.07
2023-04-19T11:58:50.912Z,12.49
2023-04-19T12:03:57.788Z,12.61
2023-04-19T12:09:06.533Z,12.74
2023-04-19T12:14:14.874Z,12.69
2023-04-19T12:19:20.907Z,13.27
2023-04-19T12:24:26.421Z,12.93
2023-04-19T12:29:32.005Z,12.90
2023-04-19T12:34:37.617Z,12.71
2023-04-19T12:39:43.080Z,12.54
2023-04-19T12:44:48.728Z,12.51
2023-04-19T12:49:55.858Z,12.34
2023-04-19T12:55:01.510Z,12.44
2023-04-19T13:00:10.045Z,12.65
2023-04-19T13:05:15.575Z,12.54
2023-04-19T13:10:21.401Z,12.12
2023-04-19T13:15:28.716Z,11.86
2023-04-19T13:20:34.358Z,11.88
2023-04-19T13:25:41.486Z,11.50
2023-04-19T13:30:46.930Z,11.50
2023-04-19T13:35:52.365Z,11.45
2023-04-19T13:40:57.945Z,11.36
2023-04-19T13:46:03.458Z,11.32
2023-04-19T13:51:09.246Z,11.09
2023-04-19T13:56:15.866Z,10.85
2023-04-19T14:01:22.541Z,10.84
2023-04-19T14:06:28.072Z,10.81
2023-04-19T14:11:34.029Z,10.71
2023-04-19T14:16:39.631Z,10.50
2023-04-19T14:21:45.193Z,10.41
2023-04-19T14:27:03.524Z,10.21
2023-04-19T14:32:05.082Z,10.29
2023-04-19T14:37:06.562Z,10.00
2023-04-19T14:42:12.136Z,9.68
2023-04-19T14:47:17.611Z,9.55
2023-04-19T14:52:24.707Z,9.69
2023-04-19T14:57:30.349Z,9.75
2023-04-19T15:02:37.648Z,9.55
2023-04-19T15:07:43.452Z,9.40
2023-04-19T15:12:48.998Z,9.08
2023-04-19T15:17:54.503Z,8.96
2023-04-19T15:23:00.249Z,8.96
2023-04-19T15:28:06.073Z,9.05
2023-04-19T15:33:11.868Z,8.82
2023-04-19T15:38:19.087Z,8.81
2023-04-19T15:43:25.462Z,8.87
2023-04-19T15:48:31.095Z,8.90
2023-04-19T15:53:37.048Z,8.84
2023-04-19T15:58:43.297Z,8.88
2023-04-19T16:03:48.815Z,8.73
2023-04-19T16:08:54.421Z,8.67
2023-04-19T16:14:00.234Z,8.67
2023-04-19T16:19:20.205Z,8.77
2023-04-19T16:24:26.516Z,8.92
2023-04-19T16:29:32.514Z,8.88
2023-04-19T16:34:38.218Z,8.85
2023-04-19T16:39:43.719Z,8.80
2023-04-19T16:44:49.216Z,8.78
2023-04-19T16:49:56.214Z,8.77
2023-04-19T16:55:03.673Z,8.62
2023-04-19T17:00:10.781Z,8.59
2023-04-19T17:05:16.954Z,8.61
2023-04-19T17:10:22.570Z,8.66
2023-04-19T17:15:28.392Z,8.65
2023-04-19T17:20:34.134Z,8.73
2023-04-19T17:25:39.742Z,8.77
2023-04-19T17:30:47.213Z,8.89
2023-04-19T17:35:52.676Z,8.84
2023-04-19T17:40:58.753Z,8.82
2023-04-19T17:46:04.254Z,8.75
2023-04-19T17:51:09.936Z,8.94
2023-04-19T17:56:15.533Z,8.94
2023-04-19T18:01:21.342Z,8.99
2023-04-19T18:06:27.344Z,9.05
2023-04-19T18:11:32.919Z,9.09
2023-04-19T18:16:38.455Z,9.21
2023-04-19T18:21:44.163Z,9.19
2023-04-19T18:26:49.627Z,9.18
2023-04-19T18:31:55.762Z,9.13
2023-04-19T18:37:04.590Z,9.14
2023-04-19T18:42:10.122Z,9.12
2023-04-19T18:47:15.610Z,9.06
2023-04-19T18:52:21.261Z,9.17
2023-04-19T18:57:27.875Z,9.10
2023-04-19T19:02:34.633Z,9.11
2023-04-19T19:07:41.848Z,9.15
2023-04-19T19:12:47.694Z,9.17
2023-04-19T19:17:53.222Z,9.14
2023-04-19T19:22:59.552Z,9.10
2023-04-19T19:28:09.759Z,9.16
2023-04-19T19:33:14.089Z,9.14
2023-04-19T19:38:19.845Z,9.21
2023-04-19T19:43:25.286Z,9.25
2023-04-19T19:48:32.488Z,9.26
2023-04-19T19:53:38.621Z,9.31
2023-04-19T19:58:49.648Z,9.18
2023-04-19T20:03:51.771Z,9.35
2023-04-19T20:08:57.660Z,9.39
2023-04-19T20:14:03.297Z,9.45
2023-04-19T20:19:31.088Z,9.48
2023-04-19T20:24:38.104Z,9.52
2023-04-19T20:29:43.616Z,9.54
2023-04-19T20:34:49.047Z,9.49
2023-04-19T20:39:56.200Z,9.54
2023-04-19T20:45:01.743Z,9.51
2023-04-19T20:50:08.678Z,9.18
2023-04-19T20:55:14.632Z,9.46
2023-04-19T21:00:20.374Z,9.53
2023-04-19T21:05:27.521Z,9.45
2023-04-19T21:10:33.327Z,9.46
2023-04-19T21:15:38.875Z,9.42
2023-04-19T21:20:44.493Z,9.36
2023-04-19T21:25:50.388Z,9.30
2023-04-19T21:30:56.107Z,9.25
2023-04-19T21:36:01.613Z,9.19
2023-04-19T21:41:08.565Z,9.19
2023-04-19T21:46:14.314Z,9.10
2023-04-19T21:51:19.841Z,9.05
2023-04-19T21:56:25.505Z,9.12
2023-04-19T22:01:30.946Z,9.07
2023-04-19T22:06:37.012Z,9.06
2023-04-19T22:11:43.418Z,9.10
2023-04-19T22:16:49.013Z,9.07
2023-04-19T22:21:55.517Z,9.03
2023-04-19T22:27:02.045Z,9.04
2023-04-19T22:32:07.729Z,9.00
2023-04-19T22:37:13.329Z,8.97
2023-04-19T22:42:18.846Z,9.01
2023-04-19T22:47:24.370Z,8.96
2023-04-19T22:52:29.801Z,8.89
2023-04-19T22:57:35.448Z,8.87
2023-04-19T23:02:41.323Z,8.90
2023-04-19T23:07:46.825Z,9.02
2023-04-19T23:12:54.298Z,9.08
2023-04-19T23:18:01.442Z,9.03
2023-04-19T23:23:08.054Z,8.95
2023-04-19T23:28:13.823Z,8.97
2023-04-19T23:33:19.407Z,8.95
2023-04-19T23:38:25.004Z,9.00
2023-04-19T23:43:31.671Z,9.02
2023-04-19T23:48:37.273Z,9.02
2023-04-19T23:53:42.779Z,8.96
2023-04-19T23:58:48.354Z,8.92
